Time;durP1;ratioP1;P1;durP2;ratioP2;P2;SDS_P1;SDS_P2;PMS_P1;PMS_P2;Temp;Humidity;BMP_temperature;BMP_pressure;BME280_temperature;BME280_humidity;BME280_pressure;Samples;Min_cycle;Max_cycle;Signal;HPM_P1;HPM_P2
2023/04/01 00:00:47;;;;;;;0.20;0.20;;;10.90;99.90;;;;;;5001159;28;20136;-67
2023/04/01 00:03:13;;;;;;;0.32;0.32;;;11.00;99.90;;;;;;5006025;28;20109;-68
2023/04/01 00:05:38;;;;;;;1.35;0.65;;;11.00;99.90;;;;;;4992620;28;20495;-68
2023/04/01 00:08:04;;;;;;;0.38;0.38;;;11.00;99.90;;;;;;5002942;28;20072;-68
2023/04/01 00:10:30;;;;;;;0.10;0.10;;;11.00;99.90;;;;;;4993814;28;20093;-68
2023/04/01 00:12:55;;;;;;;0.20;0.20;;;11.00;99.90;;;;;;4995530;28;20452;-67
2023/04/01 00:15:21;;;;;;;1.10;0.40;;;11.00;99.90;;;;;;5009640;28;20034;-68
2023/04/01 00:17:47;;;;;;;0.00;0.00;;;11.00;99.90;;;;;;5007279;28;20477;-68
2023/04/01 00:20:14;;;;;;;0.08;0.08;;;11.00;99.90;;;;;;4998821;28;20046;-68
2023/04/01 00:22:40;;;;;;;0.00;0.00;;;11.00;99.90;;;;;;5008280;28;20120;-68
2023/04/01 00:25:06;;;;;;;0.20;0.20;;;11.00;99.90;;;;;;5007716;28;20042;-68
2023/04/01 00:27:32;;;;;;;0.00;0.00;;;11.00;99.90;;;;;;4998771;28;20414;-68
2023/04/01 00:29:58;;;;;;;0.10;0.10;;;11.00;99.90;;;;;;5002294;28;20057;-68
2023/04/01 00:32:23;;;;;;;0.08;0.08;;;11.00;99.90;;;;;;5000746;28;20409;-68
2023/04/01 00:34:52;;;;;;;0.00;0.00;;;11.00;99.90;;;;;;5002331;28;20042;-68
2023/04/01 00:37:19;;;;;;;0.00;0.00;;;11.00;99.90;;;;;;5001276;28;20046;-68
2023/04/01 00:39:45;;;;;;;0.00;0.00;;;11.00;99.90;;;;;;5009590;28;20034;-68
2023/04/01 00:42:12;;;;;;;0.00;0.00;;;11.00;99.90;;;;;;5004307;28;20051;-68
2023/04/01 00:44:38;;;;;;;0.47;0.47;;;11.00;99.90;;;;;;5007514;28;20144;-68
2023/04/01 00:47:04;;;;;;;0.10;0.10;;;11.00;99.90;;;;;;4997287;28;20057;-68
2023/04/01 00:49:36;;;;;;;0.20;0.20;;;11.00;99.90;;;;;;5001003;28;20049;-68
2023/04/01 00:52:04;;;;;;;0.10;0.10;;;11.00;99.90;;;;;;5009448;28;20057;-68
2023/04/01 00:54:32;;;;;;;0.00;0.00;;;10.90;99.90;;;;;;5010211;28;20038;-68
2023/04/01 00:56:59;;;;;;;0.05;0.05;;;10.90;99.90;;;;;;5000401;28;20034;-68
2023/04/01 00:59:30;;;;;;;0.00;0.00;;;10.90;99.90;;;;;;5000202;28;20058;-68
2023/04/01 01:01:56;;;;;;;0.20;0.20;;;10.90;99.90;;;;;;5002126;28;20042;-68
2023/04/01 01:04:27;;;;;;;0.10;0.10;;;10.90;99.90;;;;;;4997970;28;20421;-68
2023/04/01 01:06:56;;;;;;;0.10;0.10;;;10.90;99.90;;;;;;4997859;28;20126;-68
2023/04/01 01:09:39;;;;;;;0.00;0.00;;;10.90;99.90;;;;;;5003531;28;20073;-68
2023/04/01 01:12:05;;;;;;;;;;;10.90;99.90;;;;;;5000616;28;20052;-68
2023/04/01 01:14:36;;;;;;;0.20;0.20;;;10.90;99.90;;;;;;5002760;28;20439;-68
2023/04/01 01:17:27;;;;;;;0.10;0.10;;;10.90;99.90;;;;;;5009352;28;20835;-67
2023/04/01 01:20:07;;;;;;;0.05;0.05;;;10.90;99.90;;;;;;4978942;28;20396;-68
2023/04/01 01:22:52;;;;;;;0.10;0.10;;;10.90;99.90;;;;;;5003787;28;20489;-68
2023/04/01 01:25:45;;;;;;;0.00;0.00;;;10.90;99.90;;;;;;5002347;28;20049;-68
2023/04/01 01:28:43;;;;;;;0.10;0.10;;;10.90;99.90;;;;;;5003020;28;20045;-68
2023/04/01 01:31:58;;;;;;;0.10;0.10;;;10.90;99.90;;;;;;5010008;28;20129;-68
2023/04/01 01:34:45;;;;;;;0.45;0.45;;;10.90;99.90;;;;;;4980700;28;20062;-68
2023/04/01 01:37:17;;;;;;;0.10;0.10;;;10.90;99.90;;;;;;5008964;28;20053;-67
2023/04/01 01:39:45;;;;;;;0.00;0.00;;;10.90;99.90;;;;;;5009575;28;20512;-67
2023/04/01 01:42:16;;;;;;;0.08;0.08;;;10.90;99.90;;;;;;5011811;28;20046;-68
2023/04/01 01:44:45;;;;;;;0.10;0.10;;;10.90;99.90;;;;;;5003155;28;20506;-68
2023/04/01 01:47:12;;;;;;;0.00;0.00;;;10.90;99.90;;;;;;5010353;28;20129;-67
2023/04/01 01:49:40;;;;;;;0.10;0.10;;;10.90;99.90;;;;;;5002464;28;20513;-67
2023/04/01 01:52:06;;;;;;;0.00;0.00;;;10.90;99.90;;;;;;5008215;28;20745;-67
2023/04/01 01:54:32;;;;;;;1.05;1.05;;;10.90;99.90;;;;;;5005867;28;20042;-67
2023/04/01 01:57:08;;;;;;;0.00;0.00;;;10.90;99.90;;;;;;5005225;28;20120;-67
2023/04/01 01:59:37;;;;;;;0.10;0.10;;;10.90;99.90;;;;;;5002424;28;20576;-67
2023/04/01 02:02:07;;;;;;;0.00;0.00;;;10.90;99.90;;;;;;5012941;28;20053;-67
2023/04/01 02:04:36;;;;;;;0.20;0.20;;;10.90;99.90;;;;;;5000465;28;20049;-67
2023/04/01 02:07:04;;;;;;;0.00;0.00;;;10.90;99.90;;;;;;5009592;28;20054;-67
2023/04/01 02:09:30;;;;;;;0.00;0.00;;;10.90;99.90;;;;;;5004722;28;20089;-68
2023/04/01 02:11:59;;;;;;;0.10;0.10;;;10.90;99.90;;;;;;5002888;28;20046;-67
2023/04/01 02:14:37;;;;;;;0.03;0.03;;;10.90;99.90;;;;;;5013765;28;20053;-67
2023/04/01 02:17:02;;;;;;;0.00;0.00;;;10.90;99.90;;;;;;5008604;28;20213;-67
2023/04/01 02:19:35;;;;;;;0.10;0.10;;;10.90;99.90;;;;;;4999908;28;20046;-67
2023/04/01 02:22:05;;;;;;;0.93;0.87;;;10.90;99.90;;;;;;5010998;28;20046;-67
2023/04/01 02:24:35;;;;;;;0.00;0.00;;;10.90;99.90;;;;;;5002564;28;20116;-67
2023/04/01 02:27:00;;;;;;;0.10;0.10;;;10.90;99.90;;;;;;5004414;28;20096;-67
2023/04/01 02:29:26;;;;;;;0.10;0.10;;;10.90;99.90;;;;;;5015340;28;20042;-67
2023/04/01 02:31:53;;;;;;;0.10;0.10;;;10.90;99.90;;;;;;5006714;28;20433;-67
2023/04/01 02:34:21;;;;;;;0.30;0.30;;;10.90;99.90;;;;;;5004607;28;20445;-68
2023/04/01 02:36:48;;;;;;;0.00;0.00;;;10.90;99.90;;;;;;5012319;28;20046;-67
2023/04/01 02:39:14;;;;;;;0.45;0.45;;;10.90;99.90;;;;;;5006603;28;20141;-67
2023/04/01 02:41:41;;;;;;;0.30;0.30;;;10.90;99.90;;;;;;5004438;28;20474;-67
2023/04/01 02:44:07;;;;;;;0.13;0.13;;;10.90;99.90;;;;;;5007278;28;20042;-67
2023/04/01 02:46:33;;;;;;;0.20;0.20;;;11.00;99.90;;;;;;5010095;28;20132;-67
2023/04/01 02:48:58;;;;;;;0.10;0.10;;;11.00;99.90;;;;;;5008908;28;20125;-67
2023/04/01 02:51:25;;;;;;;0.10;0.10;;;10.90;99.90;;;;;;5000333;28;20046;-67
2023/04/01 02:53:51;;;;;;;0.52;0.30;;;10.90;99.90;;;;;;5008178;28;20034;-67
2023/04/01 02:56:17;;;;;;;0.30;0.30;;;10.90;99.90;;;;;;5009306;28;20375;-67
2023/04/01 02:58:42;;;;;;;0.10;0.10;;;10.90;99.90;;;;;;5008088;28;20087;-67
2023/04/01 03:01:08;;;;;;;0.30;0.30;;;10.90;99.90;;;;;;4999287;28;20045;-67
2023/04/01 03:03:34;;;;;;;0.10;0.10;;;10.90;99.90;;;;;;5002425;28;20045;-67
2023/04/01 03:06:09;;;;;;;0.13;0.08;;;10.90;99.90;;;;;;5013569;28;20045;-67
2023/04/01 03:08:35;;;;;;;0.30;0.30;;;10.90;99.90;;;;;;5001397;28;20054;-68
2023/04/01 03:11:00;;;;;;;0.10;0.10;;;10.90;99.90;;;;;;4994829;28;20046;-67
2023/04/01 03:13:26;;;;;;;1.58;0.95;;;10.90;99.90;;;;;;5001538;28;20089;-67
2023/04/01 03:15:53;;;;;;;0.47;0.47;;;10.90;99.90;;;;;;4999048;28;20041;-68
2023/04/01 03:18:19;;;;;;;0.17;0.17;;;10.90;99.90;;;;;;5003426;28;20242;-67
2023/04/01 03:20:44;;;;;;;0.10;0.10;;;10.90;99.90;;;;;;4995583;28;20050;-67
2023/04/01 03:23:10;;;;;;;0.10;0.10;;;10.90;99.90;;;;;;5003208;28;20047;-67
2023/04/01 03:25:36;;;;;;;0.25;0.25;;;10.90;99.90;;;;;;5000270;28;20050;-67
2023/04/01 03:28:02;;;;;;;0.10;0.10;;;10.90;99.90;;;;;;5014113;28;20037;-67
2023/04/01 03:30:31;;;;;;;0.10;0.10;;;10.90;99.90;;;;;;5014356;28;20042;-67
2023/04/01 03:32:57;;;;;;;0.17;0.17;;;10.90;99.90;;;;;;5001216;28;20046;-68
2023/04/01 03:35:22;;;;;;;2.92;0.47;;;10.90;99.90;;;;;;5007155;28;20512;-67
2023/04/01 03:37:48;;;;;;;0.10;0.10;;;10.90;99.90;;;;;;5009019;28;20042;-67
2023/04/01 03:40:13;;;;;;;0.70;0.70;;;10.80;99.90;;;;;;5005762;28;20049;-68
2023/04/01 03:42:39;;;;;;;0.10;0.10;;;10.90;99.90;;;;;;5000457;28;20058;-68
2023/04/01 03:45:05;;;;;;;0.10;0.10;;;10.90;99.90;;;;;;5006577;28;20045;-68
2023/04/01 03:47:31;;;;;;;0.10;0.10;;;10.90;99.90;;;;;;5006596;28;20137;-67
2023/04/01 03:49:56;;;;;;;0.20;0.20;;;10.90;99.90;;;;;;5002679;28;20177;-67
2023/04/01 03:52:22;;;;;;;0.08;0.08;;;10.90;99.90;;;;;;5007956;28;20044;-67
2023/04/01 03:54:47;;;;;;;0.10;0.10;;;10.80;99.90;;;;;;5001708;28;20042;-67
2023/04/01 03:57:13;;;;;;;0.10;0.10;;;10.80;99.90;;;;;;5004034;28;20107;-67
2023/04/01 03:59:39;;;;;;;0.10;0.10;;;10.80;99.90;;;;;;5009543;28;20041;-67
2023/04/01 04:02:05;;;;;;;0.00;0.00;;;10.80;99.90;;;;;;4995187;28;20042;-67
2023/04/01 04:04:31;;;;;;;0.10;0.10;;;10.80;99.90;;;;;;5000251;28;20124;-68
2023/04/01 04:06:57;;;;;;;0.10;0.10;;;10.80;99.90;;;;;;5004371;28;20042;-68
2023/04/01 04:09:23;;;;;;;0.10;0.10;;;10.80;99.90;;;;;;4997598;28;20100;-68
2023/04/01 04:11:50;;;;;;;0.10;0.10;;;10.80;99.90;;;;;;5008313;28;20527;-68
2023/04/01 04:14:15;;;;;;;0.00;0.00;;;10.80;99.90;;;;;;5001695;28;20033;-67
2023/04/01 04:16:41;;;;;;;0.10;0.10;;;10.80;99.90;;;;;;5008312;28;20104;-68
2023/04/01 04:19:07;;;;;;;0.80;0.47;;;10.80;99.90;;;;;;5001595;28;20034;-67
2023/04/01 04:21:32;;;;;;;0.00;0.00;;;10.80;99.90;;;;;;5009190;28;20543;-68
2023/04/01 04:24:00;;;;;;;0.20;0.20;;;10.80;99.90;;;;;;5000496;28;20049;-68
2023/04/01 04:26:26;;;;;;;0.13;0.13;;;10.80;99.90;;;;;;5001773;28;20034;-67
2023/04/01 04:28:51;;;;;;;0.10;0.10;;;10.80;99.90;;;;;;5009231;28;20066;-68
2023/04/01 04:31:21;;;;;;;0.10;0.10;;;10.80;99.90;;;;;;5001997;28;20052;-68
2023/04/01 04:33:47;;;;;;;0.40;0.40;;;10.80;99.90;;;;;;5009121;28;20041;-67
2023/04/01 04:36:13;;;;;;;0.25;0.25;;;10.80;99.90;;;;;;4995325;28;20512;-67
2023/04/01 04:38:39;;;;;;;0.30;0.30;;;10.80;99.90;;;;;;5004452;28;20049;-67
2023/04/01 04:41:15;;;;;;;0.17;0.17;;;10.80;99.90;;;;;;5006539;28;20040;-68
2023/04/01 04:43:42;;;;;;;0.30;0.30;;;10.80;99.90;;;;;;5004136;28;20421;-67
2023/04/01 04:46:10;;;;;;;0.13;0.13;;;10.80;99.90;;;;;;5001587;28;20042;-67
2023/04/01 04:48:36;;;;;;;0.22;0.22;;;10.80;99.90;;;;;;5008298;28;20042;-68
2023/04/01 04:51:03;;;;;;;0.00;0.00;;;10.80;99.90;;;;;;5003008;28;20045;-68
2023/04/01 04:53:29;;;;;;;0.45;0.45;;;10.80;99.90;;;;;;5005247;28;20073;-68
2023/04/01 04:55:54;;;;;;;0.10;0.10;;;10.80;99.90;;;;;;5007947;28;20049;-67
2023/04/01 04:58:20;;;;;;;0.17;0.17;;;10.80;99.90;;;;;;4998241;28;20030;-67
2023/04/01 05:00:46;;;;;;;2.50;0.40;;;10.80;99.90;;;;;;5006322;28;20079;-67
2023/04/01 05:03:12;;;;;;;0.00;0.00;;;10.80;99.90;;;;;;4999057;28;20062;-68
2023/04/01 05:05:39;;;;;;;0.30;0.30;;;10.80;99.90;;;;;;4996411;28;20049;-67
2023/04/01 05:08:05;;;;;;;0.00;0.00;;;10.80;99.90;;;;;;4999833;28;20096;-68
2023/04/01 05:10:31;;;;;;;0.10;0.10;;;10.80;99.90;;;;;;5005385;28;20045;-68
2023/04/01 05:12:57;;;;;;;0.35;0.35;;;10.80;99.90;;;;;;5010203;28;20038;-68
2023/04/01 05:15:23;;;;;;;0.20;0.20;;;10.80;99.90;;;;;;5011713;28;20045;-68
2023/04/01 05:17:49;;;;;;;0.20;0.20;;;10.80;99.90;;;;;;5000828;28;20046;-68
2023/04/01 05:20:15;;;;;;;0.47;0.47;;;10.80;99.90;;;;;;5011488;28;20524;-68
2023/04/01 05:22:41;;;;;;;0.10;0.10;;;10.80;99.90;;;;;;5008481;28;20050;-68
2023/04/01 05:25:07;;;;;;;1.58;1.48;;;10.80;99.90;;;;;;5001324;28;20037;-68
2023/04/01 05:27:33;;;;;;;0.30;0.30;;;10.80;99.90;;;;;;5012782;28;20053;-68
2023/04/01 05:29:59;;;;;;;0.10;0.10;;;10.80;99.90;;;;;;5008376;28;20037;-68
2023/04/01 05:32:25;;;;;;;0.45;0.45;;;10.80;99.90;;;;;;5002872;28;20115;-68
2023/04/01 05:34:51;;;;;;;1.95;0.70;;;10.80;99.90;;;;;;5011931;28;20048;-68
2023/04/01 05:37:17;;;;;;;0.13;0.13;;;10.80;99.90;;;;;;5011385;28;20057;-68
2023/04/01 05:39:43;;;;;;;0.30;0.30;;;10.80;99.90;;;;;;5007766;28;20095;-68
2023/04/01 05:42:08;;;;;;;0.52;0.52;;;10.80;99.90;;;;;;5000741;28;20125;-68
2023/04/01 05:44:35;;;;;;;1.88;0.55;;;10.80;99.90;;;;;;5010765;28;20045;-67
2023/04/01 05:47:00;;;;;;;0.13;0.13;;;10.80;99.90;;;;;;5004550;28;20069;-67
2023/04/01 05:49:26;;;;;;;0.10;0.10;;;10.80;99.90;;;;;;5008765;28;20412;-67
2023/04/01 05:51:52;;;;;;;0.28;0.28;;;10.80;99.90;;;;;;5009015;28;20053;-67
2023/04/01 05:54:18;;;;;;;0.90;0.85;;;10.80;99.90;;;;;;5004206;28;20401;-67
2023/04/01 05:56:43;;;;;;;0.40;0.40;;;10.80;99.90;;;;;;5012231;28;20048;-67
2023/04/01 05:59:11;;;;;;;0.32;0.32;;;10.80;99.90;;;;;;5011508;28;20038;-67
2023/04/01 06:01:36;;;;;;;0.30;0.30;;;10.80;99.90;;;;;;5004678;28;20049;-67
2023/04/01 06:04:02;;;;;;;0.30;0.30;;;10.80;99.90;;;;;;5011014;28;20049;-67
2023/04/01 06:06:30;;;;;;;0.10;0.10;;;10.80;99.90;;;;;;5011476;28;20623;-67
2023/04/01 06:09:01;;;;;;;0.13;0.13;;;10.80;99.90;;;;;;5007290;28;20050;-67
2023/04/01 06:11:41;;;;;;;0.55;0.47;;;10.80;99.90;;;;;;5011214;28;20050;-67
2023/04/01 06:14:20;;;;;;;0.28;0.28;;;10.80;99.90;;;;;;5011477;28;20088;-67
2023/04/01 06:16:54;;;;;;;0.50;0.50;;;10.80;99.90;;;;;;5008359;28;20050;-68
2023/04/01 06:19:26;;;;;;;0.47;0.47;;;10.80;99.90;;;;;;4999001;28;20509;-68
2023/04/01 06:22:29;;;;;;;0.30;0.30;;;10.80;99.90;;;;;;5005130;28;20165;-68
2023/04/01 06:25:07;;;;;;;0.55;0.55;;;10.80;99.90;;;;;;5010807;28;20080;-67
2023/04/01 06:27:48;;;;;;;0.15;0.15;;;10.80;99.90;;;;;;5004929;28;20072;-67
2023/04/01 06:30:27;;;;;;;0.30;0.30;;;10.80;99.90;;;;;;5009522;28;20049;-67
2023/04/01 06:33:29;;;;;;;0.28;0.28;;;10.80;99.90;;;;;;5000300;28;20363;-67
2023/04/01 06:36:15;;;;;;;0.30;0.30;;;10.80;99.90;;;;;;4987147;28;20046;-67
2023/04/01 06:39:05;;;;;;;0.00;0.00;;;10.80;99.90;;;;;;5003626;28;20132;-67
2023/04/01 06:42:10;;;;;;;0.35;0.35;;;10.80;99.90;;;;;;5005562;28;20093;-67
2023/04/01 06:45:01;;;;;;;0.43;0.30;;;10.80;99.90;;;;;;5003237;28;20050;-67
2023/04/01 06:47:48;;;;;;;0.10;0.10;;;10.80;99.90;;;;;;5006807;28;20080;-67
2023/04/01 06:50:37;;;;;;;0.17;0.17;;;10.80;99.90;;;;;;5007802;28;20046;-67
2023/04/01 06:53:31;;;;;;;0.60;0.60;;;10.80;99.90;;;;;;5002290;28;20052;-67
2023/04/01 06:56:02;;;;;;;0.00;0.00;;;10.90;99.90;;;;;;5003951;28;20045;-67
2023/04/01 06:58:35;;;;;;;0.00;0.00;;;10.90;99.90;;;;;;4999961;28;20141;-67
2023/04/01 07:01:04;;;;;;;0.40;0.40;;;10.90;99.90;;;;;;5009186;28;20060;-67
2023/04/01 07:03:39;;;;;;;0.00;0.00;;;10.90;99.90;;;;;;5010919;28;20509;-67
2023/04/01 07:06:27;;;;;;;0.68;0.65;;;10.90;99.90;;;;;;5000174;28;20048;-67
2023/04/01 07:08:54;;;;;;;0.05;0.05;;;11.00;99.90;;;;;;4997397;28;20061;-67
2023/04/01 07:11:29;;;;;;;0.73;0.73;;;10.90;99.90;;;;;;5005933;28;20132;-67
2023/04/01 07:14:07;;;;;;;0.30;0.30;;;10.90;99.90;;;;;;4995872;28;20084;-66
2023/04/01 07:16:35;;;;;;;0.65;0.65;;;11.00;99.90;;;;;;5002964;28;20089;-65
2023/04/01 07:19:24;;;;;;;0.00;0.00;;;11.00;99.90;;;;;;5010373;28;20046;-66
2023/04/01 07:21:55;;;;;;;0.20;0.20;;;11.00;99.90;;;;;;4979251;28;20062;-66
2023/04/01 07:24:34;;;;;;;0.20;0.20;;;11.00;99.90;;;;;;5002449;28;20042;-66
2023/04/01 07:27:00;;;;;;;0.50;0.50;;;11.00;99.90;;;;;;5001395;28;20049;-66
2023/04/01 07:29:26;;;;;;;0.80;0.63;;;11.00;99.90;;;;;;5003405;28;20042;-66
2023/04/01 07:32:19;;;;;;;0.25;0.25;;;11.00;99.90;;;;;;4999915;28;20073;-66
2023/04/01 07:35:06;;;;;;;0.90;0.90;;;11.00;99.90;;;;;;4998469;28;20049;-66
2023/04/01 07:37:57;;;;;;;3.10;1.08;;;11.00;99.90;;;;;;5005295;28;20121;-66
2023/04/01 07:40:53;;;;;;;0.15;0.15;;;11.10;99.90;;;;;;5001570;28;20046;-67
2023/04/01 07:43:37;;;;;;;0.10;0.10;;;11.10;99.90;;;;;;4991539;28;20053;-67
2023/04/01 07:46:30;;;;;;;0.35;0.35;;;11.20;99.90;;;;;;4997860;28;20057;-67
2023/04/01 07:48:58;;;;;;;0.10;0.10;;;11.20;99.90;;;;;;5007765;28;20046;-67
2023/04/01 07:51:34;;;;;;;0.10;0.10;;;11.20;99.90;;;;;;5000489;28;20128;-67
2023/04/01 07:54:15;;;;;;;0.15;0.15;;;11.20;99.90;;;;;;5000753;28;20041;-67
2023/04/01 07:57:02;;;;;;;0.63;0.63;;;11.10;99.90;;;;;;5005551;28;20050;-67
2023/04/01 07:59:28;;;;;;;1.10;0.40;;;11.10;99.90;;;;;;5018805;28;20052;-65
2023/04/01 08:02:08;;;;;;;0.20;0.20;;;11.20;99.90;;;;;;5004344;28;20046;-67
2023/04/01 08:05:06;;;;;;;0.90;0.90;;;11.30;99.90;;;;;;5003891;28;20563;-67
2023/04/01 08:07:58;;;;;;;0.55;0.55;;;11.30;99.90;;;;;;4996581;28;20349;-67
2023/04/01 08:10:55;;;;;;;0.70;0.70;;;11.30;99.90;;;;;;5001781;28;20058;-67
2023/04/01 08:13:47;;;;;;;0.20;0.20;;;11.40;99.90;;;;;;4998849;28;20048;-67
2023/04/01 08:16:18;;;;;;;5.15;0.95;;;11.60;99.90;;;;;;4976058;28;20058;-66
2023/04/01 08:19:16;;;;;;;0.47;0.47;;;11.60;99.90;;;;;;5008373;28;20045;-67
2023/04/01 08:21:46;;;;;;;1.35;1.13;;;11.60;99.90;;;;;;4960835;28;20058;-67
2023/04/01 08:24:42;;;;;;;0.10;0.10;;;11.50;99.90;;;;;;5007579;28;20485;-67
2023/04/01 08:27:28;;;;;;;0.10;0.10;;;11.50;99.90;;;;;;5000543;28;20049;-67
2023/04/01 08:30:29;;;;;;;0.75;0.57;;;11.40;99.90;;;;;;5010522;28;20104;-67
2023/04/01 08:33:27;;;;;;;0.73;0.73;;;11.40;99.90;;;;;;5007096;28;20493;-67
2023/04/01 08:36:14;;;;;;;0.10;0.10;;;11.40;99.90;;;;;;5000337;28;20090;-67
2023/04/01 08:38:50;;;;;;;0.22;0.22;;;11.30;99.90;;;;;;4999034;28;20080;-67
2023/04/01 08:41:15;;;;;;;0.10;0.10;;;11.40;99.90;;;;;;5005827;28;20069;-67
2023/04/01 08:44:02;;;;;;;0.30;0.30;;;11.40;99.90;;;;;;5000339;28;20073;-67
2023/04/01 08:47:04;;;;;;;0.35;0.35;;;11.40;99.90;;;;;;4975687;28;1036503;-67
2023/04/01 08:50:06;;;;;;;0.28;0.28;;;11.40;99.90;;;;;;5002432;28;20446;-67
2023/04/01 08:52:52;;;;;;;0.10;0.10;;;11.40;99.90;;;;;;4968945;28;20417;-67
2023/04/01 08:55:26;;;;;;;0.10;0.10;;;11.40;99.90;;;;;;5003638;28;20125;-67
2023/04/01 08:58:27;;;;;;;0.20;0.20;;;11.50;99.90;;;;;;5002886;28;20045;-67
2023/04/01 09:01:13;;;;;;;0.10;0.10;;;11.50;99.90;;;;;;5006770;28;20409;-68
2023/04/01 09:03:48;;;;;;;0.10;0.10;;;11.60;99.90;;;;;;5008443;28;20532;-67
2023/04/01 09:07:05;;;;;;;0.20;0.20;;;11.70;99.90;;;;;;4994761;28;20147;-67
2023/04/01 09:09:39;;;;;;;0.63;0.30;;;11.70;99.90;;;;;;4983466;28;20081;-67
2023/04/01 09:12:19;;;;;;;0.10;0.10;;;11.80;99.90;;;;;;4994263;28;20053;-67
2023/04/01 09:15:01;;;;;;;0.10;0.10;;;11.90;99.90;;;;;;5004584;28;20117;-67
2023/04/01 09:17:35;;;;;;;0.38;0.38;;;11.90;99.90;;;;;;4996996;28;20490;-67
2023/04/01 09:20:09;;;;;;;0.03;0.03;;;11.90;99.90;;;;;;5008560;28;20057;-67
2023/04/01 09:23:07;;;;;;;0.10;0.10;;;12.00;99.90;;;;;;4996854;28;20054;-67
2023/04/01 09:25:48;;;;;;;2.45;0.85;;;11.90;99.90;;;;;;4997193;28;20192;-67
2023/04/01 09:28:27;;;;;;;0.00;0.00;;;12.00;99.90;;;;;;4994180;28;20192;-67
2023/04/01 09:31:18;;;;;;;0.10;0.10;;;12.00;99.90;;;;;;5013220;28;20049;-67
2023/04/01 09:34:07;;;;;;;0.10;0.10;;;12.10;99.90;;;;;;4995470;28;20906;-67
2023/04/01 09:36:46;;;;;;;0.00;0.00;;;12.10;99.90;;;;;;5004498;28;20137;-67
2023/04/01 09:40:00;;;;;;;0.38;0.38;;;12.10;99.90;;;;;;5007367;28;20053;-67
2023/04/01 09:42:45;;;;;;;0.00;0.00;;;12.10;99.90;;;;;;4987654;28;20054;-67
2023/04/01 09:45:28;;;;;;;0.10;0.10;;;12.10;99.90;;;;;;4989471;28;20337;-67
2023/04/01 09:48:21;;;;;;;0.00;0.00;;;12.10;99.90;;;;;;5002067;28;20088;-67
2023/04/01 09:51:11;;;;;;;0.38;0.38;;;12.10;99.90;;;;;;5008601;28;20054;-67
2023/04/01 09:53:37;;;;;;;0.10;0.10;;;12.10;99.90;;;;;;5003313;28;20042;-67
2023/04/01 09:56:22;;;;;;;0.10;0.10;;;12.10;99.90;;;;;;5005134;28;20096;-67
2023/04/01 09:59:15;;;;;;;0.10;0.10;;;12.10;99.90;;;;;;5010162;28;20038;-67
2023/04/01 10:02:08;;;;;;;0.03;0.03;;;12.00;99.90;;;;;;5007778;28;20061;-67
2023/04/01 10:04:40;;;;;;;0.10;0.10;;;12.00;99.90;;;;;;5004408;28;20176;-67
2023/04/01 10:07:33;;;;;;;0.10;0.10;;;12.00;99.90;;;;;;5010848;28;20050;-67
2023/04/01 10:10:29;;;;;;;0.28;0.28;;;12.00;99.90;;;;;;5007465;28;20038;-67
2023/04/01 10:13:12;;;;;;;0.10;0.10;;;11.90;99.90;;;;;;4998270;28;20038;-67
2023/04/01 10:15:45;;;;;;;0.20;0.20;;;11.80;99.90;;;;;;5007213;28;20046;-66
2023/04/01 10:18:19;;;;;;;0.03;0.03;;;11.70;99.90;;;;;;5009650;28;20378;-67
2023/04/01 10:21:14;;;;;;;0.10;0.10;;;11.70;99.90;;;;;;5020178;28;20045;-67
2023/04/01 10:23:40;;;;;;;0.00;0.00;;;11.80;99.90;;;;;;5004631;28;20050;-67
2023/04/01 10:26:30;;;;;;;1.13;0.45;;;11.90;99.90;;;;;;5000419;28;20392;-67
2023/04/01 10:29:20;;;;;;;0.00;0.00;;;11.90;99.90;;;;;;5017488;28;20157;-67
2023/04/01 10:32:23;;;;;;;1.45;1.00;;;11.90;99.90;;;;;;5007518;28;20042;-67
2023/04/01 10:35:08;;;;;;;0.10;0.10;;;11.80;99.90;;;;;;5009155;28;20436;-67
2023/04/01 10:37:55;;;;;;;0.55;0.52;;;11.80;99.90;;;;;;5005513;28;20050;-67
2023/04/01 10:41:09;;;;;;;0.95;0.45;;;11.80;99.90;;;;;;5009305;28;20044;-67
2023/04/01 10:44:09;;;;;;;0.10;0.10;;;11.80;99.90;;;;;;4992072;28;20097;-67
2023/04/01 10:46:46;;;;;;;0.10;0.10;;;11.70;99.90;;;;;;5001819;28;20057;-67
2023/04/01 10:49:48;;;;;;;0.32;0.32;;;11.70;99.90;;;;;;5009797;28;20043;-67
2023/04/01 10:53:03;;;;;;;0.43;0.43;;;11.60;99.90;;;;;;5008068;28;20549;-67
2023/04/01 10:55:49;;;;;;;0.20;0.20;;;11.60;99.90;;;;;;4959250;28;20053;-67
2023/04/01 10:58:56;;;;;;;0.00;0.00;;;11.50;99.90;;;;;;5019567;28;20132;-67
2023/04/01 11:02:00;;;;;;;0.10;0.10;;;11.60;99.90;;;;;;4985043;28;20062;-67
2023/04/01 11:05:13;;;;;;;2.28;0.98;;;11.70;99.90;;;;;;4995066;28;20393;-67
2023/04/01 11:07:58;;;;;;;0.93;0.65;;;11.70;99.90;;;;;;4969756;28;20495;-67
2023/04/01 11:10:42;;;;;;;0.90;0.70;;;11.70;99.90;;;;;;5001843;28;20913;-67
2023/04/01 11:13:34;;;;;;;0.63;0.63;;;11.70;99.90;;;;;;5002064;28;20050;-67
2023/04/01 11:16:19;;;;;;;0.28;0.28;;;11.80;99.90;;;;;;5008691;28;20133;-67
2023/04/01 11:19:13;;;;;;;0.00;0.00;;;11.80;99.90;;;;;;5000345;28;20053;-67
2023/04/01 11:21:49;;;;;;;0.13;0.13;;;11.80;99.90;;;;;;5005386;28;20133;-67
2023/04/01 11:24:47;;;;;;;0.00;0.00;;;11.80;99.90;;;;;;5008048;28;20301;-67
2023/04/01 11:27:19;;;;;;;0.00;0.00;;;11.80;99.90;;;;;;5009478;28;20353;-67
2023/04/01 11:29:48;;;;;;;0.00;0.00;;;11.90;99.90;;;;;;5010022;28;20038;-67
2023/04/01 11:32:24;;;;;;;0.00;0.00;;;11.90;99.90;;;;;;5009997;28;20057;-66
2023/04/01 11:35:08;;;;;;;0.00;0.00;;;11.90;99.90;;;;;;5005568;28;20418;-67
2023/04/01 11:37:50;;;;;;;0.10;0.10;;;11.90;99.90;;;;;;5007767;28;20053;-67
2023/04/01 11:40:43;;;;;;;0.25;0.25;;;11.90;99.90;;;;;;4992968;28;20055;-67
2023/04/01 11:43:45;;;;;;;0.10;0.10;;;12.00;99.90;;;;;;5004932;28;20049;-67
2023/04/01 11:46:25;;;;;;;0.40;0.40;;;12.00;99.90;;;;;;5005550;28;20054;-67
2023/04/01 11:49:26;;;;;;;0.10;0.10;;;12.00;99.90;;;;;;5009996;28;20045;-67
2023/04/01 11:52:33;;;;;;;0.00;0.00;;;11.90;99.90;;;;;;4998545;28;20052;-67
2023/04/01 11:55:25;;;;;;;0.10;0.10;;;11.90;99.90;;;;;;4999460;28;20133;-67
2023/04/01 11:57:59;;;;;;;0.20;0.20;;;11.90;99.90;;;;;;5009943;28;20046;-66
2023/04/01 12:00:58;;;;;;;0.10;0.10;;;12.00;99.90;;;;;;5007120;28;20444;-67
2023/04/01 12:03:46;;;;;;;0.30;0.30;;;11.90;99.90;;;;;;5003518;28;20049;-67
2023/04/01 12:06:16;;;;;;;0.10;0.10;;;12.00;99.90;;;;;;5010285;28;20498;-67
2023/04/01 12:08:56;;;;;;;0.00;0.00;;;12.10;99.90;;;;;;5010279;28;20482;-67
2023/04/01 12:11:46;;;;;;;0.30;0.30;;;12.20;99.90;;;;;;5001002;28;20080;-66
2023/04/01 12:14:36;;;;;;;3.20;0.73;;;12.20;99.90;;;;;;5005121;28;20452;-67
2023/04/01 12:17:28;;;;;;;0.20;0.20;;;12.20;99.90;;;;;;5007818;28;20477;-67
2023/04/01 12:20:15;;;;;;;0.10;0.10;;;12.20;99.90;;;;;;4998866;28;20121;-67
2023/04/01 12:23:16;;;;;;;0.10;0.10;;;12.10;99.90;;;;;;5004429;28;20053;-67
2023/04/01 12:25:53;;;;;;;0.10;0.10;;;12.10;99.90;;;;;;4996910;28;20053;-67
2023/04/01 12:28:25;;;;;;;0.10;0.10;;;12.10;99.90;;;;;;5003890;28;20077;-67
2023/04/01 12:31:16;;;;;;;0.10;0.10;;;11.90;99.90;;;;;;5006814;28;20084;-67
2023/04/01 12:33:51;;;;;;;0.22;0.22;;;11.90;99.90;;;;;;5007105;28;20054;-67
2023/04/01 12:36:32;;;;;;;0.00;0.00;;;11.80;99.90;;;;;;4998506;28;20042;-67
2023/04/01 12:39:22;;;;;;;0.22;0.22;;;11.80;99.90;;;;;;5000277;28;20494;-67
2023/04/01 12:42:24;;;;;;;0.10;0.10;;;11.70;99.90;;;;;;5004131;28;20085;-67
2023/04/01 12:45:08;;;;;;;0.00;0.00;;;11.70;99.90;;;;;;5004918;28;20045;-66
2023/04/01 12:47:42;;;;;;;;;;;11.70;99.90;;;;;;5006935;28;20042;-65
2023/04/01 12:50:32;;;;;;;0.00;0.00;;;11.70;99.90;;;;;;5002436;28;19976;-67
2023/04/01 12:53:16;;;;;;;0.00;0.00;;;11.70;99.90;;;;;;5002857;28;20045;-66
2023/04/01 12:55:44;;;;;;;2.97;1.30;;;11.80;99.90;;;;;;5008708;28;20409;-66
2023/04/01 12:58:31;;;;;;;0.10;0.10;;;11.80;99.90;;;;;;5000047;28;20046;-67
2023/04/01 13:01:22;;;;;;;0.00;0.00;;;11.80;99.90;;;;;;4994055;28;20100;-66
2023/04/01 13:04:06;;;;;;;0.00;0.00;;;11.70;99.90;;;;;;4999614;28;20042;-67
2023/04/01 13:06:35;;;;;;;0.10;0.10;;;11.60;99.90;;;;;;5006803;28;20140;-67
2023/04/01 13:09:04;;;;;;;0.00;0.00;;;11.50;99.90;;;;;;5006964;28;20042;-68
2023/04/01 13:12:10;;;;;;;0.10;0.10;;;11.50;99.90;;;;;;5004484;28;20470;-66
2023/04/01 13:14:57;;;;;;;0.10;0.10;;;11.50;99.90;;;;;;5002920;28;20619;-67
2023/04/01 13:17:52;;;;;;;0.10;0.10;;;11.40;99.90;;;;;;5002101;28;20074;-67
2023/04/01 13:20:23;;;;;;;0.03;0.03;;;11.40;99.90;;;;;;5003244;28;20046;-67
2023/04/01 13:23:06;;;;;;;0.20;0.20;;;11.30;99.90;;;;;;4999647;28;20042;-67
2023/04/01 13:25:44;;;;;;;0.15;0.15;;;11.30;99.90;;;;;;5003777;28;20148;-67
2023/04/01 13:28:22;;;;;;;0.00;0.00;;;11.20;99.90;;;;;;5013533;28;20054;-67
2023/04/01 13:31:03;;;;;;;0.00;0.00;;;11.20;99.90;;;;;;5009624;28;20042;-67
2023/04/01 13:33:59;;;;;;;0.00;0.00;;;11.30;99.90;;;;;;5001929;28;20046;-66
2023/04/01 13:36:33;;;;;;;0.10;0.10;;;11.20;99.90;;;;;;5006906;28;20073;-65
2023/04/01 13:39:18;;;;;;;0.10;0.10;;;11.10;99.90;;;;;;4998885;28;20042;-65